UKKK/IEV METAR and TAF weather

Enter ICAO airport designator
Station Type Date Time Source
UKKK METAR 2019/07/20 05:00 UTC NOAA

UKKK 200500Z 25002MPS CAVOK 19/13 Q1018 R26/CLRD70 NOSIG


Station Type Date Time Source
UKKK Decoded METAR 2019/07/20 05:00 UTC NOAA

Kyiv, Ukraine (UKKK) 50-24N 030-34E 167M
Jul 20, 2019 - 01:00 AM EDT / 2019.07.20 0500 UTC
Wind: from the WSW (250 degrees) at 4 MPH (4 KT):0
Visibility: greater than 7 mile(s):0
Temperature: 66 F (19 C)
Dew Point: 55 F (13 C)
Relative Humidity: 68%
Pressure (altimeter): 30.06 in. Hg (1018 hPa)
ob: UKKK 200500Z 25002MPS CAVOK 19/13 Q1018 R26/CLRD70 NOSIG
cycle: 5

Station Type Date Time Source
UKKK TAF 2019/07/19 18:06 UTC NOAA

TAF UKKK 191702Z 1918/2018 24003G08MPS 9999 SCT020
TEMPO 1920/2006 2000 BR SCT007
BECMG 2006/2007 25004G09MPS
TEMPO 2008/2018 SCT020CB

Example: see airport list